sensor_id;sensor_type;location;lat;lon;timestamp;temperature;humidity
46816;DHT22;32787;53.316;8.670;2023-04-08T00:00:34;5.60;87.40
46816;DHT22;32787;53.316;8.670;2023-04-08T00:03:00;5.60;87.40
46816;DHT22;32787;53.316;8.670;2023-04-08T00:05:26;5.60;87.40
46816;DHT22;32787;53.316;8.670;2023-04-08T00:07:52;5.70;86.90
46816;DHT22;32787;53.316;8.670;2023-04-08T00:10:18;5.60;87.10
46816;DHT22;32787;53.316;8.670;2023-04-08T00:12:44;5.70;86.90
46816;DHT22;32787;53.316;8.670;2023-04-08T00:15:10;5.60;86.90
46816;DHT22;32787;53.316;8.670;2023-04-08T00:17:35;5.60;87.00
46816;DHT22;32787;53.316;8.670;2023-04-08T00:20:01;5.60;86.90
46816;DHT22;32787;53.316;8.670;2023-04-08T00:22:27;5.70;86.80
46816;DHT22;32787;53.316;8.670;2023-04-08T00:24:53;5.70;86.80
46816;DHT22;32787;53.316;8.670;2023-04-08T00:27:18;5.60;87.10
46816;DHT22;32787;53.316;8.670;2023-04-08T00:29:44;5.60;86.90
46816;DHT22;32787;53.316;8.670;2023-04-08T00:32:09;5.60;86.90
46816;DHT22;32787;53.316;8.670;2023-04-08T00:34:35;5.50;86.90
46816;DHT22;32787;53.316;8.670;2023-04-08T00:37:02;5.50;87.10
46816;DHT22;32787;53.316;8.670;2023-04-08T00:39:27;5.40;87.30
46816;DHT22;32787;53.316;8.670;2023-04-08T00:41:53;5.50;87.20
46816;DHT22;32787;53.316;8.670;2023-04-08T00:44:18;5.50;87.20
46816;DHT22;32787;53.316;8.670;2023-04-08T00:46:44;5.50;87.30
46816;DHT22;32787;53.316;8.670;2023-04-08T00:49:10;5.50;87.10
46816;DHT22;32787;53.316;8.670;2023-04-08T00:51:36;5.50;87.20
46816;DHT22;32787;53.316;8.670;2023-04-08T00:54:03;5.50;87.20
46816;DHT22;32787;53.316;8.670;2023-04-08T00:56:31;5.60;86.90
46816;DHT22;32787;53.316;8.670;2023-04-08T00:58:59;5.60;86.90
46816;DHT22;32787;53.316;8.670;2023-04-08T01:01:53;5.70;86.70
46816;DHT22;32787;53.316;8.670;2023-04-08T01:04:27;5.60;86.80
46816;DHT22;32787;53.316;8.670;2023-04-08T01:07:16;5.60;86.90
46816;DHT22;32787;53.316;8.670;2023-04-08T01:09:53;5.70;86.70
46816;DHT22;32787;53.316;8.670;2023-04-08T01:12:28;5.60;87.00
46816;DHT22;32787;53.316;8.670;2023-04-08T01:15:05;5.60;87.20
46816;DHT22;32787;53.316;8.670;2023-04-08T01:17:32;5.60;87.20
46816;DHT22;32787;53.316;8.670;2023-04-08T01:20:00;5.60;87.30
46816;DHT22;32787;53.316;8.670;2023-04-08T01:22:28;5.60;87.30
46816;DHT22;32787;53.316;8.670;2023-04-08T01:25:04;5.60;87.30
46816;DHT22;32787;53.316;8.670;2023-04-08T01:27:31;5.80;87.30
46816;DHT22;32787;53.316;8.670;2023-04-08T01:29:58;5.70;87.20
46816;DHT22;32787;53.316;8.670;2023-04-08T01:32:25;5.70;87.40
46816;DHT22;32787;53.316;8.670;2023-04-08T01:34:53;5.70;87.60
46816;DHT22;32787;53.316;8.670;2023-04-08T01:37:19;5.80;87.80
46816;DHT22;32787;53.316;8.670;2023-04-08T01:39:47;5.80;87.70
46816;DHT22;32787;53.316;8.670;2023-04-08T01:42:14;5.80;87.60
46816;DHT22;32787;53.316;8.670;2023-04-08T01:44:41;5.70;87.80
46816;DHT22;32787;53.316;8.670;2023-04-08T01:47:09;5.70;88.10
46816;DHT22;32787;53.316;8.670;2023-04-08T01:49:35;5.70;88.10
46816;DHT22;32787;53.316;8.670;2023-04-08T01:52:02;5.80;88.00
46816;DHT22;32787;53.316;8.670;2023-04-08T01:54:29;5.80;88.10
46816;DHT22;32787;53.316;8.670;2023-04-08T01:56:56;5.70;88.40
46816;DHT22;32787;53.316;8.670;2023-04-08T01:59:28;5.70;88.50
46816;DHT22;32787;53.316;8.670;2023-04-08T02:01:56;5.60;88.70
46816;DHT22;32787;53.316;8.670;2023-04-08T02:04:22;5.70;88.70
46816;DHT22;32787;53.316;8.670;2023-04-08T02:06:47;5.70;88.80
46816;DHT22;32787;53.316;8.670;2023-04-08T02:09:13;5.70;88.80
46816;DHT22;32787;53.316;8.670;2023-04-08T02:11:39;5.70;88.80
46816;DHT22;32787;53.316;8.670;2023-04-08T02:14:04;5.70;89.00
46816;DHT22;32787;53.316;8.670;2023-04-08T02:21:37;5.80;88.80
46816;DHT22;32787;53.316;8.670;2023-04-08T02:24:07;5.80;88.90
46816;DHT22;32787;53.316;8.670;2023-04-08T02:26:35;5.70;88.90
46816;DHT22;32787;53.316;8.670;2023-04-08T02:29:02;5.80;89.00
46816;DHT22;32787;53.316;8.670;2023-04-08T02:31:28;5.80;88.90
46816;DHT22;32787;53.316;8.670;2023-04-08T02:33:55;5.90;88.60
46816;DHT22;32787;53.316;8.670;2023-04-08T02:36:22;5.90;88.60
46816;DHT22;32787;53.316;8.670;2023-04-08T02:38:50;6.00;88.30
46816;DHT22;32787;53.316;8.670;2023-04-08T02:41:16;5.90;88.30
46816;DHT22;32787;53.316;8.670;2023-04-08T02:43:42;6.30;87.90
46816;DHT22;32787;53.316;8.670;2023-04-08T02:46:08;6.10;87.80
46816;DHT22;32787;53.316;8.670;2023-04-08T02:48:35;6.20;87.60
46816;DHT22;32787;53.316;8.670;2023-04-08T02:51:01;6.00;88.00
46816;DHT22;32787;53.316;8.670;2023-04-08T02:53:26;5.90;88.40
46816;DHT22;32787;53.316;8.670;2023-04-08T02:55:52;5.90;88.60
46816;DHT22;32787;53.316;8.670;2023-04-08T02:58:18;5.90;88.70
46816;DHT22;32787;53.316;8.670;2023-04-08T03:00:43;6.00;88.30
46816;DHT22;32787;53.316;8.670;2023-04-08T03:03:09;5.90;88.40
46816;DHT22;32787;53.316;8.670;2023-04-08T03:05:35;6.00;88.60
46816;DHT22;32787;53.316;8.670;2023-04-08T03:08:01;6.30;88.00
46816;DHT22;32787;53.316;8.670;2023-04-08T03:10:26;6.30;87.50
46816;DHT22;32787;53.316;8.670;2023-04-08T03:12:52;6.10;87.80
46816;DHT22;32787;53.316;8.670;2023-04-08T03:15:18;6.00;88.10
46816;DHT22;32787;53.316;8.670;2023-04-08T03:17:43;6.10;88.50
46816;DHT22;32787;53.316;8.670;2023-04-08T03:20:09;6.10;87.90
46816;DHT22;32787;53.316;8.670;2023-04-08T03:22:36;6.20;87.80
46816;DHT22;32787;53.316;8.670;2023-04-08T03:25:01;6.00;88.00
46816;DHT22;32787;53.316;8.670;2023-04-08T03:27:27;6.00;88.20
46816;DHT22;32787;53.316;8.670;2023-04-08T03:29:53;5.90;88.20
46816;DHT22;32787;53.316;8.670;2023-04-08T03:32:19;5.90;88.40
46816;DHT22;32787;53.316;8.670;2023-04-08T03:34:45;5.90;88.30
46816;DHT22;32787;53.316;8.670;2023-04-08T03:37:10;5.90;88.10
46816;DHT22;32787;53.316;8.670;2023-04-08T03:39:37;6.00;88.40
46816;DHT22;32787;53.316;8.670;2023-04-08T03:42:02;5.90;88.00
46816;DHT22;32787;53.316;8.670;2023-04-08T03:44:28;5.90;88.40
46816;DHT22;32787;53.316;8.670;2023-04-08T03:46:53;5.90;88.10
46816;DHT22;32787;53.316;8.670;2023-04-08T03:49:19;5.90;88.40
46816;DHT22;32787;53.316;8.670;2023-04-08T03:51:45;5.80;88.60
46816;DHT22;32787;53.316;8.670;2023-04-08T03:54:10;6.00;88.70
46816;DHT22;32787;53.316;8.670;2023-04-08T03:56:36;5.90;88.30
46816;DHT22;32787;53.316;8.670;2023-04-08T03:59:02;5.90;88.40
46816;DHT22;32787;53.316;8.670;2023-04-08T04:01:27;5.90;88.40
46816;DHT22;32787;53.316;8.670;2023-04-08T04:03:54;6.10;88.50
46816;DHT22;32787;53.316;8.670;2023-04-08T04:06:20;6.00;88.20
46816;DHT22;32787;53.316;8.670;2023-04-08T04:08:45;6.00;88.40
46816;DHT22;32787;53.316;8.670;2023-04-08T04:11:11;6.00;88.30
46816;DHT22;32787;53.316;8.670;2023-04-08T04:13:37;6.00;88.40
46816;DHT22;32787;53.316;8.670;2023-04-08T04:16:02;6.20;88.30
46816;DHT22;32787;53.316;8.670;2023-04-08T04:18:28;6.30;88.20
46816;DHT22;32787;53.316;8.670;2023-04-08T04:20:54;6.20;87.60
46816;DHT22;32787;53.316;8.670;2023-04-08T04:23:19;6.10;88.10
46816;DHT22;32787;53.316;8.670;2023-04-08T04:25:45;6.20;88.30
46816;DHT22;32787;53.316;8.670;2023-04-08T04:28:11;6.40;87.70
46816;DHT22;32787;53.316;8.670;2023-04-08T04:30:37;6.20;87.70
46816;DHT22;32787;53.316;8.670;2023-04-08T04:33:04;6.30;87.90
46816;DHT22;32787;53.316;8.670;2023-04-08T04:35:30;6.40;87.80
46816;DHT22;32787;53.316;8.670;2023-04-08T04:37:55;6.20;87.80
46816;DHT22;32787;53.316;8.670;2023-04-08T04:40:21;6.10;88.10
46816;DHT22;32787;53.316;8.670;2023-04-08T04:42:46;6.20;88.10
46816;DHT22;32787;53.316;8.670;2023-04-08T04:45:12;6.30;87.90
46816;DHT22;32787;53.316;8.670;2023-04-08T04:47:38;6.20;87.70
46816;DHT22;32787;53.316;8.670;2023-04-08T04:50:04;6.10;88.20
46816;DHT22;32787;53.316;8.670;2023-04-08T04:52:30;6.10;88.20
46816;DHT22;32787;53.316;8.670;2023-04-08T04:54:59;6.10;88.40
46816;DHT22;32787;53.316;8.670;2023-04-08T04:57:24;6.10;88.50
46816;DHT22;32787;53.316;8.670;2023-04-08T04:59:50;6.10;88.50
46816;DHT22;32787;53.316;8.670;2023-04-08T05:02:16;6.20;88.40
46816;DHT22;32787;53.316;8.670;2023-04-08T05:04:41;6.60;87.90
46816;DHT22;32787;53.316;8.670;2023-04-08T05:07:07;6.60;87.20
46816;DHT22;32787;53.316;8.670;2023-04-08T05:09:32;6.40;87.30
46816;DHT22;32787;53.316;8.670;2023-04-08T05:11:58;6.30;87.80
46816;DHT22;32787;53.316;8.670;2023-04-08T05:14:24;6.30;88.20
46816;DHT22;32787;53.316;8.670;2023-04-08T05:16:49;6.30;88.30
46816;DHT22;32787;53.316;8.670;2023-04-08T05:19:15;6.30;88.10
46816;DHT22;32787;53.316;8.670;2023-04-08T05:21:41;6.30;88.40
46816;DHT22;32787;53.316;8.670;2023-04-08T05:24:06;6.40;88.40
46816;DHT22;32787;53.316;8.670;2023-04-08T05:26:32;6.20;88.50
46816;DHT22;32787;53.316;8.670;2023-04-08T05:28:57;6.10;88.80
46816;DHT22;32787;53.316;8.670;2023-04-08T05:31:23;6.10;88.90
46816;DHT22;32787;53.316;8.670;2023-04-08T05:33:48;6.10;89.00
46816;DHT22;32787;53.316;8.670;2023-04-08T05:36:14;6.30;88.70
46816;DHT22;32787;53.316;8.670;2023-04-08T05:38:40;6.40;88.40
46816;DHT22;32787;53.316;8.670;2023-04-08T05:41:08;6.50;88.10
46816;DHT22;32787;53.316;8.670;2023-04-08T05:43:34;6.40;88.50
46816;DHT22;32787;53.316;8.670;2023-04-08T05:46:08;6.60;87.90
46816;DHT22;32787;53.316;8.670;2023-04-08T05:48:34;6.40;87.80
46816;DHT22;32787;53.316;8.670;2023-04-08T05:51:00;6.20;88.40
46816;DHT22;32787;53.316;8.670;2023-04-08T05:53:26;6.30;88.60
46816;DHT22;32787;53.316;8.670;2023-04-08T05:55:51;6.10;88.80
46816;DHT22;32787;53.316;8.670;2023-04-08T05:58:17;6.10;89.10
46816;DHT22;32787;53.316;8.670;2023-04-08T06:00:42;6.10;89.30
46816;DHT22;32787;53.316;8.670;2023-04-08T06:03:08;6.10;89.30
46816;DHT22;32787;53.316;8.670;2023-04-08T06:05:34;6.10;89.20
46816;DHT22;32787;53.316;8.670;2023-04-08T06:07:59;6.10;89.30
46816;DHT22;32787;53.316;8.670;2023-04-08T06:10:25;6.10;89.30
46816;DHT22;32787;53.316;8.670;2023-04-08T06:12:51;6.20;89.10
46816;DHT22;32787;53.316;8.670;2023-04-08T06:15:16;6.20;88.80
46816;DHT22;32787;53.316;8.670;2023-04-08T06:17:42;6.20;88.70
46816;DHT22;32787;53.316;8.670;2023-04-08T06:20:08;6.20;88.90
46816;DHT22;32787;53.316;8.670;2023-04-08T06:22:34;6.20;88.80
46816;DHT22;32787;53.316;8.670;2023-04-08T06:25:01;6.20;89.00
46816;DHT22;32787;53.316;8.670;2023-04-08T06:27:27;6.30;88.90
46816;DHT22;32787;53.316;8.670;2023-04-08T06:29:52;6.30;88.70
46816;DHT22;32787;53.316;8.670;2023-04-08T06:32:18;6.30;88.30
46816;DHT22;32787;53.316;8.670;2023-04-08T06:34:44;6.40;88.40
46816;DHT22;32787;53.316;8.670;2023-04-08T06:37:10;6.50;88.10
46816;DHT22;32787;53.316;8.670;2023-04-08T06:39:36;6.50;88.10
46816;DHT22;32787;53.316;8.670;2023-04-08T06:42:01;6.50;88.20
46816;DHT22;32787;53.316;8.670;2023-04-08T06:44:27;6.40;87.80
46816;DHT22;32787;53.316;8.670;2023-04-08T06:46:52;6.50;87.80
46816;DHT22;32787;53.316;8.670;2023-04-08T06:49:18;6.50;87.90
46816;DHT22;32787;53.316;8.670;2023-04-08T06:51:44;6.60;87.80
46816;DHT22;32787;53.316;8.670;2023-04-08T06:54:09;6.50;87.70
46816;DHT22;32787;53.316;8.670;2023-04-08T06:56:35;6.60;87.80
46816;DHT22;32787;53.316;8.670;2023-04-08T06:59:02;6.70;87.30
46816;DHT22;32787;53.316;8.670;2023-04-08T07:01:28;6.70;87.00
46816;DHT22;32787;53.316;8.670;2023-04-08T07:03:54;6.60;87.10
46816;DHT22;32787;53.316;8.670;2023-04-08T07:06:21;6.60;87.40
46816;DHT22;32787;53.316;8.670;2023-04-08T07:08:46;6.70;87.20
46816;DHT22;32787;53.316;8.670;2023-04-08T07:11:12;6.70;87.10
46816;DHT22;32787;53.316;8.670;2023-04-08T07:13:38;6.70;87.10
46816;DHT22;32787;53.316;8.670;2023-04-08T07:16:03;6.70;87.30
46816;DHT22;32787;53.316;8.670;2023-04-08T07:18:30;6.70;87.20
46816;DHT22;32787;53.316;8.670;2023-04-08T07:20:56;6.70;87.20
46816;DHT22;32787;53.316;8.670;2023-04-08T07:23:22;6.80;86.90
46816;DHT22;32787;53.316;8.670;2023-04-08T07:25:48;6.80;87.00
46816;DHT22;32787;53.316;8.670;2023-04-08T07:28:13;6.60;87.20
46816;DHT22;32787;53.316;8.670;2023-04-08T07:30:39;6.60;87.60
46816;DHT22;32787;53.316;8.670;2023-04-08T07:33:05;6.60;87.50
46816;DHT22;32787;53.316;8.670;2023-04-08T07:35:30;6.60;87.60
46816;DHT22;32787;53.316;8.670;2023-04-08T07:37:56;6.60;87.50
46816;DHT22;32787;53.316;8.670;2023-04-08T07:40:22;6.90;87.00
46816;DHT22;32787;53.316;8.670;2023-04-08T07:42:48;6.90;87.00
46816;DHT22;32787;53.316;8.670;2023-04-08T07:45:14;7.20;86.70
46816;DHT22;32787;53.316;8.670;2023-04-08T07:47:39;7.40;86.00
46816;DHT22;32787;53.316;8.670;2023-04-08T07:50:06;7.30;85.30
46816;DHT22;32787;53.316;8.670;2023-04-08T07:52:32;6.90;85.90
46816;DHT22;32787;53.316;8.670;2023-04-08T07:54:58;6.90;86.50
46816;DHT22;32787;53.316;8.670;2023-04-08T07:57:25;6.80;86.70
46816;DHT22;32787;53.316;8.670;2023-04-08T07:59:51;6.80;86.80
46816;DHT22;32787;53.316;8.670;2023-04-08T08:02:16;6.90;86.60
46816;DHT22;32787;53.316;8.670;2023-04-08T08:04:42;7.20;86.20
46816;DHT22;32787;53.316;8.670;2023-04-08T08:07:08;7.40;85.60
46816;DHT22;32787;53.316;8.670;2023-04-08T08:09:33;7.50;84.90
46816;DHT22;32787;53.316;8.670;2023-04-08T08:11:59;7.70;85.30
46816;DHT22;32787;53.316;8.670;2023-04-08T08:14:25;7.60;84.30
46816;DHT22;32787;53.316;8.670;2023-04-08T08:16:51;7.60;84.90
46816;DHT22;32787;53.316;8.670;2023-04-08T08:19:19;7.60;84.80
46816;DHT22;32787;53.316;8.670;2023-04-08T08:21:44;7.60;84.40
46816;DHT22;32787;53.316;8.670;2023-04-08T08:24:10;7.50;84.40
46816;DHT22;32787;53.316;8.670;2023-04-08T08:26:36;7.50;84.70
46816;DHT22;32787;53.316;8.670;2023-04-08T08:29:03;7.40;85.00
46816;DHT22;32787;53.316;8.670;2023-04-08T08:31:28;7.60;85.00
46816;DHT22;32787;53.316;8.670;2023-04-08T08:33:54;7.50;85.30
46816;DHT22;32787;53.316;8.670;2023-04-08T08:36:19;7.60;84.70
46816;DHT22;32787;53.316;8.670;2023-04-08T08:38:45;7.80;84.40
46816;DHT22;32787;53.316;8.670;2023-04-08T08:41:11;7.90;84.00
46816;DHT22;32787;53.316;8.670;2023-04-08T08:43:37;7.90;83.80
46816;DHT22;32787;53.316;8.670;2023-04-08T08:46:02;8.20;83.60
46816;DHT22;32787;53.316;8.670;2023-04-08T08:48:28;8.10;83.60
46816;DHT22;32787;53.316;8.670;2023-04-08T08:50:54;8.10;82.80
46816;DHT22;32787;53.316;8.670;2023-04-08T08:53:20;7.90;84.00
46816;DHT22;32787;53.316;8.670;2023-04-08T08:55:47;7.70;84.50
46816;DHT22;32787;53.316;8.670;2023-04-08T08:58:14;7.90;84.60
46816;DHT22;32787;53.316;8.670;2023-04-08T09:00:40;8.10;83.30
46816;DHT22;32787;53.316;8.670;2023-04-08T09:03:16;7.90;83.80
46816;DHT22;32787;53.316;8.670;2023-04-08T09:10:54;8.40;83.00
46816;DHT22;32787;53.316;8.670;2023-04-08T09:13:21;8.10;83.30
46816;DHT22;32787;53.316;8.670;2023-04-08T09:16:08;8.10;83.70
46816;DHT22;32787;53.316;8.670;2023-04-08T09:18:35;7.90;84.20
46816;DHT22;32787;53.316;8.670;2023-04-08T09:21:02;7.90;83.90
46816;DHT22;32787;53.316;8.670;2023-04-08T09:26:11;8.10;84.10
46816;DHT22;32787;53.316;8.670;2023-04-08T09:28:38;8.10;84.10
46816;DHT22;32787;53.316;8.670;2023-04-08T09:31:24;8.10;83.80
46816;DHT22;32787;53.316;8.670;2023-04-08T09:33:56;8.10;84.00
46816;DHT22;32787;53.316;8.670;2023-04-08T09:36:22;8.30;83.50
46816;DHT22;32787;53.316;8.670;2023-04-08T09:38:48;8.40;83.10
46816;DHT22;32787;53.316;8.670;2023-04-08T09:41:15;8.40;83.40
46816;DHT22;32787;53.316;8.670;2023-04-08T09:43:43;8.50;83.30
46816;DHT22;32787;53.316;8.670;2023-04-08T09:46:14;8.40;83.00
46816;DHT22;32787;53.316;8.670;2023-04-08T09:48:48;8.60;83.00
46816;DHT22;32787;53.316;8.670;2023-04-08T09:51:16;8.60;82.60
46816;DHT22;32787;53.316;8.670;2023-04-08T09:54:01;8.40;83.30
46816;DHT22;32787;53.316;8.670;2023-04-08T09:56:33;8.30;83.40
46816;DHT22;32787;53.316;8.670;2023-04-08T09:59:08;8.30;84.50
46816;DHT22;32787;53.316;8.670;2023-04-08T10:01:42;8.30;84.50
46816;DHT22;32787;53.316;8.670;2023-04-08T10:04:13;8.40;83.30
46816;DHT22;32787;53.316;8.670;2023-04-08T10:06:40;8.30;83.40
46816;DHT22;32787;53.316;8.670;2023-04-08T10:09:06;8.40;83.70
46816;DHT22;32787;53.316;8.670;2023-04-08T10:11:32;8.50;83.40
46816;DHT22;32787;53.316;8.670;2023-04-08T10:13:59;8.80;83.10
46816;DHT22;32787;53.316;8.670;2023-04-08T10:16:25;8.70;82.90
46816;DHT22;32787;53.316;8.670;2023-04-08T10:18:52;8.90;82.10
46816;DHT22;32787;53.316;8.670;2023-04-08T10:21:39;9.30;81.70
46816;DHT22;32787;53.316;8.670;2023-04-08T10:24:12;9.10;81.40
46816;DHT22;32787;53.316;8.670;2023-04-08T10:26:40;8.70;82.90
46816;DHT22;32787;53.316;8.670;2023-04-08T10:31:44;8.50;83.80
46816;DHT22;32787;53.316;8.670;2023-04-08T10:34:20;8.50;83.90
46816;DHT22;32787;53.316;8.670;2023-04-08T10:36:47;8.50;84.00
46816;DHT22;32787;53.316;8.670;2023-04-08T10:39:14;8.30;83.90
46816;DHT22;32787;53.316;8.670;2023-04-08T10:41:41;8.30;84.60
46816;DHT22;32787;53.316;8.670;2023-04-08T10:44:17;8.60;84.30
46816;DHT22;32787;53.316;8.670;2023-04-08T10:46:46;9.00;82.90
46816;DHT22;32787;53.316;8.670;2023-04-08T10:49:13;8.70;82.60
46816;DHT22;32787;53.316;8.670;2023-04-08T10:51:39;8.80;83.20
46816;DHT22;32787;53.316;8.670;2023-04-08T10:54:07;8.90;82.60
46816;DHT22;32787;53.316;8.670;2023-04-08T10:56:34;8.90;82.80
46816;DHT22;32787;53.316;8.670;2023-04-08T10:59:00;8.90;82.70
46816;DHT22;32787;53.316;8.670;2023-04-08T11:01:26;9.10;82.30
46816;DHT22;32787;53.316;8.670;2023-04-08T11:03:52;9.30;82.20
46816;DHT22;32787;53.316;8.670;2023-04-08T11:06:18;9.40;81.70
46816;DHT22;32787;53.316;8.670;2023-04-08T11:08:44;9.30;81.50
46816;DHT22;32787;53.316;8.670;2023-04-08T11:11:10;9.10;82.50
46816;DHT22;32787;53.316;8.670;2023-04-08T11:13:39;9.40;81.30
46816;DHT22;32787;53.316;8.670;2023-04-08T11:16:06;9.50;81.00
46816;DHT22;32787;53.316;8.670;2023-04-08T11:18:42;9.50;81.20
46816;DHT22;32787;53.316;8.670;2023-04-08T11:21:08;9.40;81.00
46816;DHT22;32787;53.316;8.670;2023-04-08T11:23:35;9.50;80.80
46816;DHT22;32787;53.316;8.670;2023-04-08T11:26:01;9.90;80.20
46816;DHT22;32787;53.316;8.670;2023-04-08T11:28:27;10.00;79.10
46816;DHT22;32787;53.316;8.670;2023-04-08T11:30:53;10.20;78.10
46816;DHT22;32787;53.316;8.670;2023-04-08T11:33:19;10.30;77.50
46816;DHT22;32787;53.316;8.670;2023-04-08T11:35:50;10.20;78.10
46816;DHT22;32787;53.316;8.670;2023-04-08T11:38:16;10.40;77.80
46816;DHT22;32787;53.316;8.670;2023-04-08T11:40:52;10.70;77.20
46816;DHT22;32787;53.316;8.670;2023-04-08T11:43:17;10.40;77.70
46816;DHT22;32787;53.316;8.670;2023-04-08T11:45:43;10.00;78.20
46816;DHT22;32787;53.316;8.670;2023-04-08T11:48:13;10.00;78.60
46816;DHT22;32787;53.316;8.670;2023-04-08T11:50:40;10.20;79.50
46816;DHT22;32787;53.316;8.670;2023-04-08T11:53:35;10.20;79.30
46816;DHT22;32787;53.316;8.670;2023-04-08T11:58:42;10.40;78.40
46816;DHT22;32787;53.316;8.670;2023-04-08T12:01:08;10.20;78.50
46816;DHT22;32787;53.316;8.670;2023-04-08T12:03:33;10.00;78.80
46816;DHT22;32787;53.316;8.670;2023-04-08T12:05:59;9.90;79.60
46816;DHT22;32787;53.316;8.670;2023-04-08T12:08:25;9.90;80.20
46816;DHT22;32787;53.316;8.670;2023-04-08T12:10:50;9.80;79.80
46816;DHT22;32787;53.316;8.670;2023-04-08T12:13:16;9.80;79.80
46816;DHT22;32787;53.316;8.670;2023-04-08T12:15:42;9.90;79.70
46816;DHT22;32787;53.316;8.670;2023-04-08T12:18:07;10.20;79.50
46816;DHT22;32787;53.316;8.670;2023-04-08T12:20:33;10.30;78.60
46816;DHT22;32787;53.316;8.670;2023-04-08T12:22:58;10.30;78.40
46816;DHT22;32787;53.316;8.670;2023-04-08T12:25:24;10.40;78.10
46816;DHT22;32787;53.316;8.670;2023-04-08T12:27:49;10.30;79.20
46816;DHT22;32787;53.316;8.670;2023-04-08T12:30:15;10.30;78.70
46816;DHT22;32787;53.316;8.670;2023-04-08T12:32:40;10.50;78.10
46816;DHT22;32787;53.316;8.670;2023-04-08T12:35:07;10.60;77.60
46816;DHT22;32787;53.316;8.670;2023-04-08T12:37:33;10.60;77.90
46816;DHT22;32787;53.316;8.670;2023-04-08T12:39:58;10.80;77.20
46816;DHT22;32787;53.316;8.670;2023-04-08T12:42:24;10.80;77.60
46816;DHT22;32787;53.316;8.670;2023-04-08T12:44:49;10.60;77.80
46816;DHT22;32787;53.316;8.670;2023-04-08T12:47:15;10.50;77.40
46816;DHT22;32787;53.316;8.670;2023-04-08T12:49:41;10.70;77.30
46816;DHT22;32787;53.316;8.670;2023-04-08T12:52:07;11.10;77.10
46816;DHT22;32787;53.316;8.670;2023-04-08T12:54:32;11.70;75.30
46816;DHT22;32787;53.316;8.670;2023-04-08T12:56:58;11.50;75.10
46816;DHT22;32787;53.316;8.670;2023-04-08T12:59:24;11.50;75.60
46816;DHT22;32787;53.316;8.670;2023-04-08T13:01:49;11.30;75.50
46816;DHT22;32787;53.316;8.670;2023-04-08T13:04:15;11.00;76.60
46816;DHT22;32787;53.316;8.670;2023-04-08T13:06:41;10.90;76.30
46816;DHT22;32787;53.316;8.670;2023-04-08T13:09:06;11.10;75.90
46816;DHT22;32787;53.316;8.670;2023-04-08T13:11:32;11.30;76.30
46816;DHT22;32787;53.316;8.670;2023-04-08T13:13:58;11.00;76.40
46816;DHT22;32787;53.316;8.670;2023-04-08T13:16:24;11.30;75.30
46816;DHT22;32787;53.316;8.670;2023-04-08T13:18:50;11.30;75.80
46816;DHT22;32787;53.316;8.670;2023-04-08T13:21:16;11.00;76.40
46816;DHT22;32787;53.316;8.670;2023-04-08T13:23:42;10.70;77.90
46816;DHT22;32787;53.316;8.670;2023-04-08T13:26:08;10.80;78.30
46816;DHT22;32787;53.316;8.670;2023-04-08T13:28:33;11.20;76.50
46816;DHT22;32787;53.316;8.670;2023-04-08T13:30:59;11.40;75.70
46816;DHT22;32787;53.316;8.670;2023-04-08T13:33:24;11.20;75.90
46816;DHT22;32787;53.316;8.670;2023-04-08T13:35:50;11.30;76.60
46816;DHT22;32787;53.316;8.670;2023-04-08T13:38:16;11.50;75.50
46816;DHT22;32787;53.316;8.670;2023-04-08T13:40:41;11.70;74.80
46816;DHT22;32787;53.316;8.670;2023-04-08T13:43:08;11.60;75.40
46816;DHT22;32787;53.316;8.670;2023-04-08T13:45:33;11.60;76.10
46816;DHT22;32787;53.316;8.670;2023-04-08T13:47:59;11.50;75.10
46816;DHT22;32787;53.316;8.670;2023-04-08T13:50:25;11.70;75.30
46816;DHT22;32787;53.316;8.670;2023-04-08T13:52:51;11.50;74.70
46816;DHT22;32787;53.316;8.670;2023-04-08T13:55:17;11.40;75.40
46816;DHT22;32787;53.316;8.670;2023-04-08T13:57:42;11.30;75.70
46816;DHT22;32787;53.316;8.670;2023-04-08T14:00:08;11.30;75.70
46816;DHT22;32787;53.316;8.670;2023-04-08T14:02:35;11.40;76.20
46816;DHT22;32787;53.316;8.670;2023-04-08T14:05:00;11.50;75.60
46816;DHT22;32787;53.316;8.670;2023-04-08T14:07:26;11.40;75.20
46816;DHT22;32787;53.316;8.670;2023-04-08T14:09:51;11.50;75.00
46816;DHT22;32787;53.316;8.670;2023-04-08T14:12:17;11.40;75.60
46816;DHT22;32787;53.316;8.670;2023-04-08T14:14:43;11.20;76.40
46816;DHT22;32787;53.316;8.670;2023-04-08T14:17:08;11.30;76.70
46816;DHT22;32787;53.316;8.670;2023-04-08T14:19:34;11.30;76.60
46816;DHT22;32787;53.316;8.670;2023-04-08T14:21:59;11.30;75.90
46816;DHT22;32787;53.316;8.670;2023-04-08T14:24:25;11.20;76.80
46816;DHT22;32787;53.316;8.670;2023-04-08T14:26:51;11.00;77.60
46816;DHT22;32787;53.316;8.670;2023-04-08T14:29:17;10.80;77.40
46816;DHT22;32787;53.316;8.670;2023-04-08T14:31:42;10.90;78.10
46816;DHT22;32787;53.316;8.670;2023-04-08T14:34:08;11.10;77.30
46816;DHT22;32787;53.316;8.670;2023-04-08T14:36:34;11.00;78.10
46816;DHT22;32787;53.316;8.670;2023-04-08T14:38:59;10.80;77.20
46816;DHT22;32787;53.316;8.670;2023-04-08T14:41:25;10.70;78.30
46816;DHT22;32787;53.316;8.670;2023-04-08T14:43:52;10.60;79.00
46816;DHT22;32787;53.316;8.670;2023-04-08T14:46:18;10.60;79.00
46816;DHT22;32787;53.316;8.670;2023-04-08T14:48:44;10.60;79.40
46816;DHT22;32787;53.316;8.670;2023-04-08T14:51:09;10.50;79.10
46816;DHT22;32787;53.316;8.670;2023-04-08T14:53:35;10.40;79.50
46816;DHT22;32787;53.316;8.670;2023-04-08T14:56:01;10.40;79.80
46816;DHT22;32787;53.316;8.670;2023-04-08T14:58:27;10.30;79.60
46816;DHT22;32787;53.316;8.670;2023-04-08T15:00:52;10.20;79.60
46816;DHT22;32787;53.316;8.670;2023-04-08T15:03:18;10.20;80.10
46816;DHT22;32787;53.316;8.670;2023-04-08T15:05:44;10.20;80.20
46816;DHT22;32787;53.316;8.670;2023-04-08T15:08:10;10.10;80.20
46816;DHT22;32787;53.316;8.670;2023-04-08T15:10:36;10.10;79.90
46816;DHT22;32787;53.316;8.670;2023-04-08T15:13:02;10.20;80.20
46816;DHT22;32787;53.316;8.670;2023-04-08T15:15:28;10.50;79.60
46816;DHT22;32787;53.316;8.670;2023-04-08T15:17:53;10.80;78.30
46816;DHT22;32787;53.316;8.670;2023-04-08T15:20:19;10.60;78.80
46816;DHT22;32787;53.316;8.670;2023-04-08T15:22:45;10.70;79.00
46816;DHT22;32787;53.316;8.670;2023-04-08T15:25:11;10.50;78.70
46816;DHT22;32787;53.316;8.670;2023-04-08T15:27:37;10.30;79.70
46816;DHT22;32787;53.316;8.670;2023-04-08T15:30:06;10.20;80.10
46816;DHT22;32787;53.316;8.670;2023-04-08T15:32:32;10.20;80.30
46816;DHT22;32787;53.316;8.670;2023-04-08T15:34:58;10.30;80.50
46816;DHT22;32787;53.316;8.670;2023-04-08T15:37:24;10.30;80.00
46816;DHT22;32787;53.316;8.670;2023-04-08T15:39:50;10.20;80.30
46816;DHT22;32787;53.316;8.670;2023-04-08T15:42:18;10.30;81.00
46816;DHT22;32787;53.316;8.670;2023-04-08T15:44:43;10.30;80.30
46816;DHT22;32787;53.316;8.670;2023-04-08T15:47:09;10.30;80.00
46816;DHT22;32787;53.316;8.670;2023-04-08T15:49:35;10.10;80.40
46816;DHT22;32787;53.316;8.670;2023-04-08T15:52:00;10.00;81.20
46816;DHT22;32787;53.316;8.670;2023-04-08T15:54:26;10.00;81.20
46816;DHT22;32787;53.316;8.670;2023-04-08T15:56:52;10.20;81.20